createdAt,value
2022-11-28T00:00:29.552Z,8.90
2022-11-28T00:02:59.185Z,8.75
2022-11-28T00:05:28.991Z,8.95
2022-11-28T00:08:01.137Z,8.77
2022-11-28T00:10:30.676Z,8.90
2022-11-28T00:13:00.136Z,9.10
2022-11-28T00:15:29.828Z,8.82
2022-11-28T00:17:59.388Z,8.43
2022-11-28T00:20:28.868Z,8.40
2022-11-28T00:23:00.965Z,8.30
2022-11-28T00:25:30.421Z,8.07
2022-11-28T00:27:59.937Z,8.15
2022-11-28T00:30:29.426Z,8.23
2022-11-28T00:32:58.905Z,8.50
2022-11-28T00:35:28.394Z,8.48
2022-11-28T00:37:57.860Z,7.97
2022-11-28T00:40:29.923Z,8.20
2022-11-28T00:42:59.390Z,8.15
2022-11-28T00:45:28.934Z,7.97
2022-11-28T00:47:58.435Z,8.65
2022-11-28T00:50:27.986Z,8.73
2022-11-28T00:52:57.453Z,8.38
2022-11-28T00:55:29.506Z,7.80
2022-11-28T00:57:59.003Z,8.38
2022-11-28T01:00:28.484Z,8.23
2022-11-28T01:02:58.027Z,8.23
2022-11-28T01:05:27.517Z,8.48
2022-11-28T01:07:57.013Z,8.25
2022-11-28T01:10:29.096Z,8.23
2022-11-28T01:12:58.544Z,8.00
2022-11-28T01:15:28.112Z,8.63
2022-11-28T01:17:57.564Z,8.27
2022-11-28T01:20:27.042Z,8.13
2022-11-28T01:22:56.498Z,8.20
2022-11-28T01:25:25.973Z,8.27
2022-11-28T01:27:58.076Z,8.57
2022-11-28T01:30:27.549Z,7.95
2022-11-28T01:32:57.225Z,8.00
2022-11-28T01:35:26.713Z,8.32
2022-11-28T01:37:56.152Z,8.13
2022-11-28T01:40:25.898Z,7.85
2022-11-28T01:42:57.997Z,8.00
2022-11-28T01:45:27.907Z,8.32
2022-11-28T01:47:58.369Z,8.25
2022-11-28T01:50:27.807Z,7.80
2022-11-28T01:52:58.941Z,8.45
2022-11-28T01:58:02.065Z,8.13
2022-11-28T02:00:31.638Z,7.85
2022-11-28T02:03:03.518Z,7.70
2022-11-28T02:05:33.045Z,8.18
2022-11-28T02:08:02.748Z,7.90
2022-11-28T02:10:35.473Z,8.43
2022-11-28T02:13:20.678Z,8.13
2022-11-28T02:15:57.786Z,8.00
2022-11-28T02:18:35.687Z,8.20
2022-11-28T02:21:37.378Z,7.95
2022-11-28T02:24:39.589Z,8.27
2022-11-28T02:27:23.960Z,7.88
2022-11-28T02:30:15.125Z,8.23
2022-11-28T02:33:03.445Z,8.32
2022-11-28T02:35:36.817Z,8.15
2022-11-28T02:38:11.023Z,8.23
2022-11-28T02:40:41.834Z,8.15
2022-11-28T02:43:15.456Z,8.20
2022-11-28T02:45:49.557Z,7.95
2022-11-28T02:48:25.439Z,8.50
2022-11-28T02:50:57.172Z,8.13
2022-11-28T02:53:27.417Z,8.40
2022-11-28T02:55:57.761Z,7.77
2022-11-28T02:58:27.187Z,8.48
2022-11-28T03:00:56.969Z,8.25
2022-11-28T03:03:36.551Z,8.25
2022-11-28T03:06:09.706Z,8.40
2022-11-28T03:08:48.768Z,8.45
2022-11-28T03:11:20.121Z,8.65
2022-11-28T03:13:54.297Z,8.20
2022-11-28T03:16:28.028Z,8.65
2022-11-28T03:19:04.793Z,8.10
2022-11-28T03:21:39.390Z,8.05
2022-11-28T03:24:13.074Z,8.55
2022-11-28T03:26:47.597Z,8.50
2022-11-28T03:29:19.145Z,9.30
2022-11-28T03:31:50.847Z,8.63
2022-11-28T03:34:23.825Z,8.85
2022-11-28T03:36:54.728Z,9.10
2022-11-28T03:39:26.512Z,9.57
2022-11-28T03:41:57.759Z,8.52
2022-11-28T03:44:29.064Z,8.80
2022-11-28T03:46:59.337Z,9.15
2022-11-28T03:49:32.982Z,9.05
2022-11-28T03:52:05.664Z,8.98
2022-11-28T03:54:36.982Z,9.32
2022-11-28T03:57:10.445Z,8.93
2022-11-28T03:59:40.884Z,8.70
2022-11-28T04:02:18.173Z,9.10
2022-11-28T04:04:54.167Z,9.35
2022-11-28T04:07:26.592Z,9.20
2022-11-28T04:10:00.666Z,9.70
2022-11-28T04:12:42.718Z,9.00
2022-11-28T04:15:14.803Z,9.43
2022-11-28T04:17:48.897Z,9.18
2022-11-28T04:20:23.588Z,9.57
2022-11-28T04:22:55.512Z,9.95
2022-11-28T04:25:25.385Z,9.63
2022-11-28T04:27:57.385Z,9.68
2022-11-28T04:30:26.890Z,9.00
2022-11-28T04:32:59.152Z,9.52
2022-11-28T04:35:32.827Z,9.40
2022-11-28T04:38:02.505Z,9.25
2022-11-28T04:40:32.970Z,9.32
2022-11-28T04:43:04.638Z,9.43
2022-11-28T04:45:36.115Z,9.73
2022-11-28T04:48:05.729Z,9.63
2022-11-28T04:50:40.507Z,9.27
2022-11-28T04:53:12.485Z,9.80
2022-11-28T04:55:44.695Z,9.77
2022-11-28T04:58:15.996Z,10.20
2022-11-28T05:00:45.672Z,9.55
2022-11-28T05:03:15.212Z,9.63
2022-11-28T05:05:48.773Z,9.63
2022-11-28T05:08:18.400Z,10.07
2022-11-28T05:10:47.893Z,9.60
2022-11-28T05:13:17.930Z,9.48
2022-11-28T05:15:47.441Z,9.80
2022-11-28T05:18:16.905Z,9.55
2022-11-28T05:20:48.943Z,10.02
2022-11-28T05:23:18.420Z,9.68
2022-11-28T05:25:47.857Z,10.13
2022-11-28T05:28:17.326Z,10.10
2022-11-28T05:30:46.780Z,10.60
2022-11-28T05:33:16.361Z,10.57
2022-11-28T05:35:45.827Z,10.07
2022-11-28T05:38:17.876Z,9.82
2022-11-28T05:40:47.334Z,9.80
2022-11-28T05:43:16.865Z,10.65
2022-11-28T05:45:46.504Z,9.90
2022-11-28T05:48:16.016Z,9.55
2022-11-28T05:50:45.505Z,9.90
2022-11-28T05:53:17.592Z,9.43
2022-11-28T05:55:47.091Z,10.10
2022-11-28T05:58:16.606Z,10.27
2022-11-28T06:00:46.060Z,9.90
2022-11-28T06:03:15.558Z,9.90
2022-11-28T06:05:45.596Z,10.30
2022-11-28T06:08:17.750Z,9.77
2022-11-28T06:10:47.180Z,10.50
2022-11-28T06:13:16.658Z,10.13
2022-11-28T06:15:46.502Z,10.32
2022-11-28T06:18:15.974Z,10.75
2022-11-28T06:20:45.428Z,10.77
2022-11-28T06:23:17.447Z,10.50
2022-11-28T06:25:46.933Z,10.40
2022-11-28T06:28:16.419Z,10.20
2022-11-28T06:30:46.248Z,10.25
2022-11-28T06:33:15.702Z,10.43
2022-11-28T06:35:45.197Z,10.00
2022-11-28T06:38:17.242Z,10.40
2022-11-28T06:40:46.707Z,10.20
2022-11-28T06:43:16.482Z,10.13
2022-11-28T06:45:45.993Z,9.93
2022-11-28T06:48:15.472Z,9.80
2022-11-28T06:50:44.989Z,9.80
2022-11-28T06:53:17.228Z,9.60
2022-11-28T06:55:46.979Z,10.15
2022-11-28T06:58:16.490Z,10.27
2022-11-28T07:00:45.951Z,10.02
2022-11-28T07:03:15.432Z,9.73
2022-11-28T07:05:44.901Z,10.43
2022-11-28T07:08:17.253Z,9.75
2022-11-28T07:10:46.772Z,10.45
2022-11-28T07:13:16.225Z,9.70
2022-11-28T07:15:51.400Z,9.65
2022-11-28T07:18:20.886Z,9.80
2022-11-28T07:20:50.299Z,9.40
2022-11-28T07:23:22.397Z,9.43
2022-11-28T07:25:51.854Z,9.23
2022-11-28T07:28:23.380Z,9.48
2022-11-28T07:30:53.090Z,9.48
2022-11-28T07:33:22.574Z,9.65
2022-11-28T07:35:52.006Z,9.35
2022-11-28T07:38:24.063Z,9.35
2022-11-28T07:40:53.504Z,9.48
2022-11-28T07:43:22.955Z,9.32
2022-11-28T07:46:00.932Z,9.50
2022-11-28T07:48:31.082Z,9.25
2022-11-28T07:51:00.532Z,8.93
2022-11-28T07:53:32.561Z,9.55
2022-11-28T07:56:04.106Z,9.63
2022-11-28T07:58:33.665Z,9.35
2022-11-28T08:01:03.089Z,9.43
2022-11-28T08:03:32.566Z,10.00
2022-11-28T08:06:03.372Z,9.13
2022-11-28T08:08:35.459Z,9.00
2022-11-28T08:11:05.673Z,9.25
2022-11-28T08:13:35.161Z,9.20
2022-11-28T08:16:06.938Z,9.20
2022-11-28T08:18:36.604Z,9.32
2022-11-28T08:21:07.318Z,9.30
2022-11-28T08:23:39.502Z,9.55
2022-11-28T08:26:10.507Z,10.00
2022-11-28T08:28:39.968Z,9.70
2022-11-28T08:31:14.718Z,9.68
2022-11-28T08:33:44.837Z,10.00
2022-11-28T08:36:15.021Z,9.23
2022-11-28T08:39:02.977Z,8.87
2022-11-28T08:41:36.510Z,9.02
2022-11-28T08:44:06.162Z,9.05
2022-11-28T08:46:36.745Z,9.02
2022-11-28T08:49:06.220Z,9.13
2022-11-28T08:51:35.692Z,9.60
2022-11-28T08:54:07.937Z,9.27
2022-11-28T08:56:37.542Z,9.65
2022-11-28T08:59:07.220Z,9.48
2022-11-28T09:01:36.736Z,9.38
2022-11-28T09:04:07.175Z,9.00
2022-11-28T09:06:36.793Z,9.43
2022-11-28T09:09:09.225Z,9.35
2022-11-28T09:11:39.682Z,9.50
2022-11-28T09:14:09.813Z,10.30
2022-11-28T09:16:40.562Z,9.88
2022-11-28T09:19:10.801Z,9.60
2022-11-28T09:21:40.706Z,10.40
2022-11-28T09:24:14.091Z,9.57
2022-11-28T09:26:43.647Z,9.48
2022-11-28T09:29:13.470Z,9.98
2022-11-28T09:31:47.175Z,9.70
2022-11-28T09:34:17.098Z,9.63
2022-11-28T09:36:46.559Z,9.70
2022-11-28T09:39:18.955Z,9.88
2022-11-28T09:41:59.152Z,9.50
2022-11-28T09:44:29.738Z,9.18
2022-11-28T09:47:01.945Z,9.35
2022-11-28T09:49:40.595Z,10.27
2022-11-28T09:52:16.525Z,10.77
2022-11-28T09:54:54.991Z,16.10
2022-11-28T09:57:28.802Z,10.95
2022-11-28T09:59:58.257Z,11.80
2022-11-28T10:02:29.528Z,11.75
2022-11-28T10:05:05.273Z,12.20
2022-11-28T10:07:39.265Z,11.75
2022-11-28T10:10:18.130Z,12.57
2022-11-28T10:12:51.177Z,12.65
2022-11-28T10:15:38.518Z,12.20
2022-11-28T10:18:14.235Z,11.55
2022-11-28T10:20:45.011Z,11.90
2022-11-28T10:23:17.501Z,11.18
2022-11-28T10:25:51.253Z,12.00
2022-11-28T10:28:22.404Z,12.07
2022-11-28T10:33:25.994Z,12.20
2022-11-28T10:35:56.774Z,12.48
2022-11-28T10:38:27.827Z,12.40
2022-11-28T10:43:39.744Z,12.98
2022-11-28T10:46:21.931Z,11.25
2022-11-28T10:48:53.784Z,11.55
2022-11-28T10:51:29.420Z,11.48
2022-11-28T10:54:05.926Z,11.75
2022-11-28T10:56:41.034Z,13.18
2022-11-28T10:59:15.614Z,12.82
2022-11-28T11:01:50.008Z,13.15
2022-11-28T11:04:21.347Z,12.75
2022-11-28T11:09:38.485Z,12.45
2022-11-28T11:12:11.028Z,12.77
2022-11-28T11:14:43.076Z,13.57
2022-11-28T11:17:18.634Z,13.88
2022-11-28T11:19:48.136Z,13.75
2022-11-28T11:22:20.414Z,13.63
2022-11-28T11:25:06.882Z,12.73
2022-11-28T11:27:39.525Z,13.80
2022-11-28T11:30:20.843Z,13.02
2022-11-28T11:32:51.759Z,13.38
2022-11-28T11:37:52.905Z,13.93
2022-11-28T11:40:28.968Z,13.77
2022-11-28T11:43:02.023Z,13.63
2022-11-28T11:45:33.399Z,13.95
2022-11-28T11:48:03.046Z,15.20
2022-11-28T11:50:33.413Z,14.35
2022-11-28T11:53:03.977Z,13.85
2022-11-28T11:55:34.218Z,14.93
2022-11-28T11:58:06.336Z,15.23
2022-11-28T12:00:39.007Z,13.95
2022-11-28T12:03:13.993Z,14.40
2022-11-28T12:06:13.175Z,14.07
2022-11-28T12:08:42.874Z,14.52
2022-11-28T12:11:16.411Z,14.18
2022-11-28T12:13:48.485Z,15.10
2022-11-28T12:16:41.622Z,15.15
2022-11-28T12:19:17.337Z,15.20
2022-11-28T12:21:53.538Z,15.65
2022-11-28T12:24:23.756Z,14.43
2022-11-28T12:26:54.372Z,14.30
2022-11-28T12:29:47.135Z,14.80
2022-11-28T12:32:23.390Z,15.75
2022-11-28T12:35:00.236Z,14.27
2022-11-28T12:38:02.733Z,13.23
2022-11-28T12:40:32.639Z,13.68
2022-11-28T12:43:09.048Z,13.80
2022-11-28T12:45:45.273Z,13.48
2022-11-28T12:48:21.802Z,14.18
2022-11-28T12:50:52.899Z,14.65
2022-11-28T12:56:12.354Z,14.88
2022-11-28T12:58:43.637Z,15.75
2022-11-28T13:01:25.201Z,16.05
2022-11-28T13:04:01.078Z,15.23
2022-11-28T13:06:34.255Z,17.05
2022-11-28T13:09:21.325Z,15.55
2022-11-28T13:11:55.765Z,15.95
2022-11-28T13:14:31.407Z,16.00
2022-11-28T13:17:15.157Z,15.48
2022-11-28T13:19:47.638Z,15.43
2022-11-28T13:22:20.390Z,15.40
2022-11-28T13:24:53.023Z,15.63
2022-11-28T13:27:27.608Z,15.93
2022-11-28T13:30:01.676Z,15.55
2022-11-28T13:32:37.603Z,15.23
2022-11-28T13:35:07.335Z,15.40
2022-11-28T13:43:07.231Z,15.65
2022-11-28T13:45:39.760Z,15.18
2022-11-28T13:51:32.972Z,14.05
2022-11-28T13:54:41.792Z,13.90
2022-11-28T13:57:18.997Z,14.18
2022-11-28T13:59:51.026Z,14.50
2022-11-28T14:02:23.066Z,14.60
2022-11-28T14:04:52.552Z,14.82
2022-11-28T14:07:29.547Z,15.05
2022-11-28T14:10:10.477Z,14.85
2022-11-28T14:12:41.867Z,14.07
2022-11-28T14:15:17.561Z,13.98
2022-11-28T14:17:58.221Z,14.35
2022-11-28T14:20:30.286Z,14.60
2022-11-28T14:23:12.028Z,15.93
2022-11-28T14:25:43.404Z,14.52
2022-11-28T14:28:20.753Z,14.55
2022-11-28T14:30:50.548Z,15.52
2022-11-28T14:33:21.475Z,14.90
2022-11-28T14:36:09.081Z,14.65
2022-11-28T14:38:51.592Z,15.23
2022-11-28T14:41:21.052Z,14.50
2022-11-28T14:43:50.700Z,15.30
2022-11-28T14:46:34.180Z,14.73
2022-11-28T14:49:24.145Z,15.00
2022-11-28T14:52:40.599Z,15.10
2022-11-28T14:55:21.221Z,16.20
2022-11-28T14:57:57.518Z,17.00
2022-11-28T15:00:28.073Z,17.55
2022-11-28T15:03:11.611Z,18.02
2022-11-28T15:05:46.861Z,16.85
2022-11-28T15:08:40.592Z,16.25
2022-11-28T15:11:24.124Z,15.77
2022-11-28T15:14:02.943Z,15.75
2022-11-28T15:16:32.816Z,17.80
2022-11-28T15:19:06.095Z,16.92
2022-11-28T15:21:44.707Z,17.90
2022-11-28T15:24:20.289Z,17.52
2022-11-28T15:26:57.218Z,17.35
2022-11-28T15:29:28.051Z,17.95
2022-11-28T15:31:58.596Z,18.50
2022-11-28T15:34:29.673Z,22.33
2022-11-28T15:39:34.923Z,17.70
2022-11-28T15:42:08.123Z,17.00
2022-11-28T15:44:37.742Z,18.20
2022-11-28T15:47:07.439Z,17.85
2022-11-28T15:49:40.637Z,18.42
2022-11-28T15:52:10.128Z,16.13
2022-11-28T15:54:41.263Z,15.82
2022-11-28T15:57:23.371Z,15.82
2022-11-28T15:59:52.866Z,15.35
2022-11-28T16:02:26.481Z,15.23
2022-11-28T16:04:57.820Z,14.93
2022-11-28T16:07:27.322Z,15.82
2022-11-28T16:10:00.541Z,15.30
2022-11-28T16:12:32.717Z,15.18
2022-11-28T16:15:05.191Z,15.73
2022-11-28T16:17:36.003Z,16.42
2022-11-28T16:20:05.510Z,17.10
2022-11-28T16:22:37.112Z,17.67
2022-11-28T16:25:23.229Z,18.80
2022-11-28T16:27:57.464Z,19.15
2022-11-28T16:30:34.733Z,20.60
2022-11-28T16:33:04.249Z,20.75
2022-11-28T16:35:37.788Z,21.70
2022-11-28T16:38:08.696Z,21.00
2022-11-28T16:40:38.138Z,20.05
2022-11-28T16:43:21.368Z,20.45
2022-11-28T16:45:59.741Z,21.70
2022-11-28T16:48:30.133Z,23.60
2022-11-28T16:51:32.304Z,20.88
2022-11-28T16:54:02.019Z,20.85
2022-11-28T16:56:45.304Z,20.45
2022-11-28T16:59:18.120Z,20.10
2022-11-28T17:01:49.103Z,21.10
2022-11-28T17:04:22.205Z,20.08
2022-11-28T17:06:51.869Z,19.88
2022-11-28T17:09:21.522Z,21.05
2022-11-28T17:11:53.809Z,20.20
2022-11-28T17:14:25.867Z,19.70
2022-11-28T17:16:55.299Z,20.73
2022-11-28T17:19:24.779Z,19.67
2022-11-28T17:21:55.052Z,20.17
2022-11-28T17:24:25.825Z,19.45
2022-11-28T17:26:55.781Z,18.77
2022-11-28T17:29:28.596Z,18.20
2022-11-28T17:31:59.032Z,18.83
2022-11-28T17:34:30.812Z,17.98
2022-11-28T17:37:00.544Z,17.05
2022-11-28T17:39:30.294Z,16.65
2022-11-28T17:41:59.861Z,16.92
2022-11-28T17:44:32.648Z,16.70
2022-11-28T17:47:02.803Z,17.92
2022-11-28T17:49:32.483Z,18.40
2022-11-28T17:52:01.924Z,19.90
2022-11-28T17:54:31.380Z,19.70
2022-11-28T17:57:00.857Z,24.60
2022-11-28T17:59:34.329Z,28.40
2022-11-28T18:02:03.876Z,26.83
2022-11-28T18:04:33.344Z,30.20
2022-11-28T18:07:02.898Z,33.53
2022-11-28T18:09:32.364Z,37.72
2022-11-28T18:12:01.865Z,39.42
2022-11-28T18:14:39.353Z,50.63
2022-11-28T18:17:09.197Z,47.53
2022-11-28T18:19:38.632Z,32.80
2022-11-28T18:22:08.901Z,33.25
2022-11-28T18:24:38.329Z,26.60
2022-11-28T18:27:07.786Z,22.17
2022-11-28T18:29:39.823Z,24.73
2022-11-28T18:32:09.344Z,24.02
2022-11-28T18:34:38.807Z,25.13
2022-11-28T18:37:08.435Z,25.13
2022-11-28T18:39:37.878Z,25.42
2022-11-28T18:42:07.627Z,29.98
2022-11-28T18:44:39.718Z,29.58
2022-11-28T18:47:09.162Z,25.48
2022-11-28T18:49:38.632Z,24.80
2022-11-28T18:52:08.146Z,23.77
2022-11-28T18:54:38.496Z,23.98
2022-11-28T18:57:09.239Z,23.50
2022-11-28T18:59:43.463Z,24.15
2022-11-28T19:02:18.150Z,23.95
2022-11-28T19:04:47.583Z,23.90
2022-11-28T19:07:17.325Z,22.60
2022-11-28T19:09:47.281Z,21.83
2022-11-28T19:12:16.740Z,21.67
2022-11-28T19:14:48.809Z,20.38
2022-11-28T19:17:18.893Z,21.92
2022-11-28T19:19:48.369Z,21.27
2022-11-28T19:22:17.891Z,22.10
2022-11-28T19:24:47.352Z,21.88
2022-11-28T19:27:16.818Z,22.10
2022-11-28T19:29:48.912Z,21.98
2022-11-28T19:32:18.427Z,23.10
2022-11-28T19:34:52.258Z,22.85
2022-11-28T19:37:21.751Z,22.88
2022-11-28T19:39:51.202Z,21.75
2022-11-28T19:42:20.699Z,21.58
2022-11-28T19:44:52.752Z,20.67
2022-11-28T19:47:23.014Z,21.15
2022-11-28T19:49:52.506Z,19.80
2022-11-28T19:52:22.006Z,19.65
2022-11-28T19:54:51.844Z,21.73
2022-11-28T19:57:21.332Z,20.42
2022-11-28T19:59:53.381Z,20.70
2022-11-28T20:02:23.584Z,20.65
2022-11-28T20:04:53.111Z,19.60
2022-11-28T20:07:22.724Z,21.85
2022-11-28T20:09:52.560Z,22.50
2022-11-28T20:12:22.340Z,21.90
2022-11-28T20:14:54.401Z,19.67
2022-11-28T20:17:23.967Z,19.45
2022-11-28T20:19:53.419Z,18.23
2022-11-28T20:22:24.764Z,18.70
2022-11-28T20:24:54.304Z,20.10
2022-11-28T20:27:23.820Z,20.27
2022-11-28T20:29:55.894Z,21.27
2022-11-28T20:32:25.411Z,20.52
2022-11-28T20:34:54.908Z,21.30
2022-11-28T20:37:24.557Z,21.48
2022-11-28T20:39:54.277Z,21.92
2022-11-28T20:42:23.809Z,22.25
2022-11-28T20:44:55.909Z,23.20
2022-11-28T20:47:25.440Z,23.75
2022-11-28T20:49:54.933Z,26.67
2022-11-28T20:52:24.386Z,23.85
2022-11-28T20:54:53.867Z,21.80
2022-11-28T20:57:23.470Z,23.02
2022-11-28T20:59:56.808Z,22.60
2022-11-28T21:02:26.494Z,23.23
2022-11-28T21:04:56.243Z,22.17
2022-11-28T21:07:27.052Z,21.92
2022-11-28T21:09:59.881Z,20.35
2022-11-28T21:12:29.347Z,20.70
2022-11-28T21:15:02.053Z,21.10
2022-11-28T21:17:31.550Z,19.10
2022-11-28T21:20:01.062Z,18.90
2022-11-28T21:22:32.890Z,19.83
2022-11-28T21:25:02.425Z,21.17
2022-11-28T21:27:31.884Z,22.00
2022-11-28T21:30:04.045Z,22.67
2022-11-28T21:32:33.511Z,22.67
2022-11-28T21:35:04.732Z,22.52
2022-11-28T21:37:34.609Z,22.92
2022-11-28T21:40:04.092Z,23.52
2022-11-28T21:42:34.286Z,23.52
2022-11-28T21:45:06.815Z,24.17
2022-11-28T21:47:36.740Z,23.65
2022-11-28T21:50:06.336Z,25.85
2022-11-28T21:52:35.823Z,25.40
2022-11-28T21:55:05.337Z,27.52
2022-11-28T21:57:35.053Z,29.08
2022-11-28T22:00:16.605Z,30.98
2022-11-28T22:03:01.116Z,30.30
2022-11-28T22:05:32.860Z,32.33
2022-11-28T22:08:02.492Z,26.70
2022-11-28T22:10:32.326Z,27.23
2022-11-28T22:13:01.816Z,26.60
2022-11-28T22:15:33.879Z,27.45
2022-11-28T22:18:03.371Z,25.02
2022-11-28T22:20:32.860Z,26.17
2022-11-28T22:23:02.395Z,25.95
2022-11-28T22:25:31.947Z,25.48
2022-11-28T22:28:01.453Z,25.65
2022-11-28T22:30:33.574Z,25.83
2022-11-28T22:33:03.081Z,24.17
2022-11-28T22:35:33.149Z,24.05
2022-11-28T22:38:02.646Z,22.92
2022-11-28T22:40:32.179Z,23.15
2022-11-28T22:43:01.722Z,22.42
2022-11-28T22:45:33.888Z,22.30
2022-11-28T22:48:03.468Z,22.95
2022-11-28T22:50:36.020Z,23.90
2022-11-28T22:53:09.445Z,24.13
2022-11-28T22:55:38.980Z,24.58
2022-11-28T22:58:08.724Z,25.35
2022-11-28T23:00:40.834Z,24.75
2022-11-28T23:03:10.508Z,25.45
2022-11-28T23:05:41.383Z,24.92
2022-11-28T23:08:14.149Z,24.85
2022-11-28T23:10:43.644Z,23.27
2022-11-28T23:13:13.166Z,22.92
2022-11-28T23:15:51.194Z,22.92
2022-11-28T23:18:22.217Z,21.95
2022-11-28T23:20:51.711Z,21.25
2022-11-28T23:23:21.269Z,22.13
2022-11-28T23:25:50.761Z,22.90
2022-11-28T23:28:20.295Z,23.45
2022-11-28T23:30:52.373Z,23.52
2022-11-28T23:33:21.915Z,25.95
2022-11-28T23:35:51.395Z,25.98
2022-11-28T23:38:20.969Z,26.17
2022-11-28T23:40:50.455Z,25.80
2022-11-28T23:43:19.961Z,24.90
2022-11-28T23:45:52.035Z,25.30
2022-11-28T23:48:21.587Z,22.33
2022-11-28T23:50:51.100Z,24.77
2022-11-28T23:53:20.640Z,27.17
2022-11-28T23:55:50.147Z,27.17
2022-11-28T23:58:19.640Z,26.38
